createdAt,value
2023-02-19T00:01:37.750Z,68.83
2023-02-19T00:04:08.369Z,68.79
2023-02-19T00:06:36.635Z,68.65
2023-02-19T00:09:04.583Z,68.60
2023-02-19T00:11:34.179Z,68.59
2023-02-19T00:14:03.023Z,68.72
2023-02-19T00:16:35.550Z,68.64
2023-02-19T00:19:05.934Z,68.61
2023-02-19T00:21:33.461Z,68.65
2023-02-19T00:24:04.107Z,68.70
2023-02-19T00:26:31.877Z,68.62
2023-02-19T00:29:00.642Z,68.66
2023-02-19T00:31:32.639Z,68.67
2023-02-19T00:34:06.928Z,68.74
2023-02-19T00:36:36.621Z,68.73
2023-02-19T00:39:05.549Z,68.63
2023-02-19T00:41:33.122Z,68.68
2023-02-19T00:44:06.007Z,68.58
2023-02-19T00:46:39.179Z,68.62
2023-02-19T00:49:08.416Z,68.64
2023-02-19T00:51:38.162Z,68.64
2023-02-19T00:54:06.660Z,68.71
2023-02-19T00:56:34.365Z,68.71
2023-02-19T00:59:01.560Z,68.71
2023-02-19T01:01:28.715Z,68.66
2023-02-19T01:03:56.312Z,68.75
2023-02-19T01:06:23.643Z,68.69
2023-02-19T01:08:51.163Z,68.79
2023-02-19T01:11:20.533Z,68.89
2023-02-19T01:13:48.084Z,68.68
2023-02-19T01:16:19.257Z,68.81
2023-02-19T01:18:47.942Z,68.92
2023-02-19T01:21:18.240Z,68.86
2023-02-19T01:23:46.732Z,68.87
2023-02-19T01:26:17.028Z,68.88
2023-02-19T01:28:45.414Z,68.87
2023-02-19T01:31:15.571Z,68.87
2023-02-19T01:33:47.053Z,68.88
2023-02-19T01:36:14.970Z,68.89
2023-02-19T01:38:42.889Z,68.94
2023-02-19T01:41:16.364Z,68.92
2023-02-19T01:44:05.348Z,68.89
2023-02-19T01:46:34.160Z,68.85
2023-02-19T01:49:15.512Z,68.96
2023-02-19T01:51:48.364Z,69.04
2023-02-19T01:54:20.247Z,69.10
2023-02-19T01:56:49.010Z,68.91
2023-02-19T01:59:18.312Z,68.94
2023-02-19T02:01:45.627Z,68.91
2023-02-19T02:04:14.790Z,68.90
2023-02-19T02:06:50.615Z,68.84
2023-02-19T02:09:41.703Z,68.90
2023-02-19T02:12:10.091Z,69.05
2023-02-19T02:14:40.562Z,68.83
2023-02-19T02:17:30.625Z,68.93
2023-02-19T02:20:34.491Z,69.01
2023-02-19T02:23:07.788Z,69.04
2023-02-19T02:26:02.348Z,68.97
2023-02-19T02:28:52.041Z,68.82
2023-02-19T02:31:34.588Z,68.85
2023-02-19T02:34:07.836Z,68.91
2023-02-19T02:36:40.038Z,69.03
2023-02-19T02:39:13.046Z,68.96
2023-02-19T02:41:46.068Z,68.92
2023-02-19T02:44:13.493Z,69.02
2023-02-19T02:46:45.047Z,68.90
2023-02-19T02:49:22.051Z,68.93
2023-02-19T02:51:54.727Z,68.97
2023-02-19T02:54:51.321Z,69.04
2023-02-19T02:57:20.754Z,68.98
2023-02-19T02:59:54.102Z,68.98
2023-02-19T03:02:30.236Z,68.91
2023-02-19T03:05:28.898Z,69.00
2023-02-19T03:08:10.128Z,68.98
2023-02-19T03:10:47.574Z,69.01
2023-02-19T03:13:48.239Z,69.04
2023-02-19T03:16:41.814Z,69.04
2023-02-19T03:19:20.190Z,69.05
2023-02-19T03:22:13.988Z,69.02
2023-02-19T03:25:08.720Z,69.13
2023-02-19T03:27:37.576Z,69.21
2023-02-19T03:30:28.664Z,69.22
2023-02-19T03:33:02.560Z,69.03
2023-02-19T03:35:36.860Z,69.11
2023-02-19T03:38:20.564Z,69.03
2023-02-19T03:41:07.131Z,69.01
2023-02-19T03:44:02.596Z,69.23
2023-02-19T03:46:35.178Z,69.15
2023-02-19T03:49:13.716Z,69.09
2023-02-19T03:51:51.261Z,69.07
2023-02-19T03:54:33.805Z,69.20
2023-02-19T03:57:23.918Z,69.29
2023-02-19T04:00:05.915Z,69.38
2023-02-19T04:03:07.446Z,69.20
2023-02-19T04:05:37.849Z,69.32
2023-02-19T04:08:14.531Z,69.30
2023-02-19T04:10:47.130Z,69.30
2023-02-19T04:13:26.336Z,69.44
2023-02-19T04:15:57.179Z,69.34
2023-02-19T04:18:33.234Z,69.47
2023-02-19T04:21:00.931Z,69.51
2023-02-19T04:23:34.129Z,69.42
2023-02-19T04:26:02.522Z,69.50
2023-02-19T04:28:30.152Z,69.53
2023-02-19T04:30:57.248Z,69.56
2023-02-19T04:33:24.478Z,69.46
2023-02-19T04:35:51.761Z,69.42
2023-02-19T04:38:18.905Z,69.41
2023-02-19T04:40:46.886Z,69.52
2023-02-19T04:43:13.929Z,69.51
2023-02-19T04:45:41.116Z,69.52
2023-02-19T04:48:09.256Z,69.49
2023-02-19T04:50:39.322Z,69.55
2023-02-19T04:53:07.346Z,69.47
2023-02-19T04:55:38.229Z,69.43
2023-02-19T04:58:05.734Z,69.52
2023-02-19T05:00:34.191Z,69.54
2023-02-19T05:03:01.811Z,69.61
2023-02-19T05:05:29.032Z,69.55
2023-02-19T05:07:56.205Z,69.48
2023-02-19T05:10:23.455Z,69.52
2023-02-19T05:12:50.558Z,69.49
2023-02-19T05:15:17.832Z,69.58
2023-02-19T05:17:44.888Z,69.70
2023-02-19T05:20:12.035Z,69.48
2023-02-19T05:22:39.288Z,69.58
2023-02-19T05:25:06.547Z,69.59
2023-02-19T05:27:33.922Z,69.57
2023-02-19T05:30:01.209Z,69.52
2023-02-19T05:32:28.346Z,69.62
2023-02-19T05:34:55.424Z,69.50
2023-02-19T05:37:22.502Z,69.54
2023-02-19T05:39:49.930Z,69.69
2023-02-19T05:42:17.158Z,69.64
2023-02-19T05:44:44.287Z,69.63
2023-02-19T05:47:11.560Z,69.55
2023-02-19T05:49:38.712Z,69.64
2023-02-19T05:52:05.953Z,69.64
2023-02-19T05:54:33.090Z,69.66
2023-02-19T05:57:00.192Z,69.70
2023-02-19T05:59:27.818Z,69.60
2023-02-19T06:01:55.788Z,69.62
2023-02-19T06:04:23.598Z,69.69
2023-02-19T06:06:50.984Z,69.87
2023-02-19T06:09:18.195Z,69.74
2023-02-19T06:11:45.584Z,69.55
2023-02-19T06:14:14.061Z,69.68
2023-02-19T06:16:41.707Z,69.66
2023-02-19T06:19:09.180Z,69.70
2023-02-19T06:21:36.289Z,69.62
2023-02-19T06:24:07.885Z,69.70
2023-02-19T06:26:35.121Z,69.65
2023-02-19T06:29:02.230Z,69.68
2023-02-19T06:31:29.741Z,69.77
2023-02-19T06:33:57.180Z,69.84
2023-02-19T06:36:24.340Z,69.73
2023-02-19T06:38:51.970Z,69.78
2023-02-19T06:41:19.455Z,69.76
2023-02-19T06:43:46.848Z,69.84
2023-02-19T06:46:14.741Z,69.74
2023-02-19T06:48:43.370Z,69.73
2023-02-19T06:51:13.421Z,69.70
2023-02-19T06:53:40.686Z,69.68
2023-02-19T06:56:23.274Z,69.64
2023-02-19T06:58:50.424Z,69.71
2023-02-19T07:01:17.800Z,69.90
2023-02-19T07:03:45.113Z,69.89
2023-02-19T07:06:12.188Z,69.87
2023-02-19T07:08:39.389Z,69.85
2023-02-19T07:11:06.563Z,69.82
2023-02-19T07:13:33.951Z,69.82
2023-02-19T07:16:03.621Z,69.78
2023-02-19T07:18:31.692Z,69.93
2023-02-19T07:21:07.019Z,69.83
2023-02-19T07:23:34.289Z,69.93
2023-02-19T07:26:01.593Z,69.87
2023-02-19T07:28:29.110Z,69.77
2023-02-19T07:31:02.032Z,69.90
2023-02-19T07:33:29.505Z,69.97
2023-02-19T07:35:56.876Z,69.90
2023-02-19T07:38:25.566Z,69.97
2023-02-19T07:40:57.511Z,69.97
2023-02-19T07:43:25.396Z,69.95
2023-02-19T07:45:53.459Z,69.93
2023-02-19T07:48:20.878Z,69.96
2023-02-19T07:50:58.834Z,69.97
2023-02-19T07:53:28.548Z,70.04
2023-02-19T07:56:01.278Z,69.98
2023-02-19T07:58:29.450Z,70.09
2023-02-19T08:00:56.784Z,70.14
2023-02-19T08:03:24.322Z,70.05
2023-02-19T08:05:53.858Z,70.02
2023-02-19T08:08:21.046Z,70.15
2023-02-19T08:11:06.606Z,70.20
2023-02-19T08:13:34.367Z,70.14
2023-02-19T08:16:16.916Z,70.23
2023-02-19T08:18:47.434Z,70.27
2023-02-19T08:21:14.763Z,70.12
2023-02-19T08:23:41.878Z,70.07
2023-02-19T08:26:09.985Z,70.14
2023-02-19T08:28:37.239Z,70.15
2023-02-19T08:31:07.403Z,70.11
2023-02-19T08:33:35.234Z,70.04
2023-02-19T08:36:07.002Z,70.13
2023-02-19T08:38:36.021Z,70.22
2023-02-19T08:41:07.518Z,70.27
2023-02-19T08:43:35.608Z,70.22
2023-02-19T08:46:03.344Z,70.18
2023-02-19T08:48:30.642Z,70.38
2023-02-19T08:51:04.033Z,70.32
2023-02-19T08:53:32.368Z,70.27
2023-02-19T08:55:59.955Z,70.28
2023-02-19T08:58:27.033Z,70.48
2023-02-19T09:00:54.410Z,70.35
2023-02-19T09:03:21.694Z,70.28
2023-02-19T09:05:48.917Z,70.38
2023-02-19T09:08:16.044Z,70.21
2023-02-19T09:10:43.421Z,70.18
2023-02-19T09:13:10.673Z,70.30
2023-02-19T09:15:38.993Z,70.09
2023-02-19T09:18:06.384Z,70.21
2023-02-19T09:20:33.586Z,70.08
2023-02-19T09:23:00.716Z,69.91
2023-02-19T09:25:27.863Z,70.10
2023-02-19T09:27:56.167Z,70.18
2023-02-19T09:30:23.536Z,70.20
2023-02-19T09:32:51.167Z,70.03
2023-02-19T09:35:18.521Z,70.22
2023-02-19T09:37:45.948Z,70.20
2023-02-19T09:40:14.482Z,69.88
2023-02-19T09:42:43.654Z,70.12
2023-02-19T09:45:20.096Z,70.04
2023-02-19T09:47:47.971Z,70.08
2023-02-19T09:50:20.632Z,69.85
2023-02-19T09:53:01.509Z,69.74
2023-02-19T09:55:34.826Z,69.79
2023-02-19T09:58:15.100Z,69.76
2023-02-19T10:00:42.838Z,69.82
2023-02-19T10:03:20.304Z,69.74
2023-02-19T10:05:48.143Z,69.82
2023-02-19T10:08:20.675Z,69.75
2023-02-19T10:10:48.123Z,69.85
2023-02-19T10:13:30.979Z,69.72
2023-02-19T10:16:00.806Z,69.47
2023-02-19T10:18:33.358Z,69.54
2023-02-19T10:21:00.590Z,69.52
2023-02-19T10:23:28.169Z,69.62
2023-02-19T10:25:57.832Z,69.85
2023-02-19T10:28:30.217Z,69.66
2023-02-19T10:30:59.952Z,69.59
2023-02-19T10:33:27.680Z,69.65
2023-02-19T10:36:01.605Z,69.55
2023-02-19T10:38:31.227Z,69.64
2023-02-19T10:41:06.171Z,69.66
2023-02-19T10:43:40.056Z,69.55
2023-02-19T10:46:16.737Z,69.55
2023-02-19T10:48:55.444Z,69.64
2023-02-19T10:51:38.953Z,69.94
2023-02-19T10:54:24.676Z,69.78
2023-02-19T10:56:51.865Z,69.73
2023-02-19T10:59:18.954Z,69.81
2023-02-19T11:01:55.967Z,69.55
2023-02-19T11:04:24.139Z,69.46
2023-02-19T11:06:51.674Z,69.35
2023-02-19T11:09:36.721Z,69.33
2023-02-19T11:12:05.812Z,69.04
2023-02-19T11:14:34.457Z,69.09
2023-02-19T11:17:05.679Z,69.44
2023-02-19T11:19:41.374Z,69.33
2023-02-19T11:22:28.853Z,69.24
2023-02-19T11:24:59.418Z,69.31
2023-02-19T11:27:26.760Z,69.22
2023-02-19T11:29:54.007Z,69.14
2023-02-19T11:32:21.393Z,69.16
2023-02-19T11:34:48.578Z,68.91
2023-02-19T11:37:21.177Z,69.02
2023-02-19T11:39:50.856Z,68.94
2023-02-19T11:42:45.561Z,68.71
2023-02-19T11:45:12.748Z,68.49
2023-02-19T11:47:52.123Z,68.12
2023-02-19T11:50:29.082Z,68.20
2023-02-19T11:53:14.782Z,68.23
2023-02-19T11:56:12.919Z,68.21
2023-02-19T11:58:40.098Z,68.32
2023-02-19T12:01:26.158Z,68.23
2023-02-19T12:03:55.952Z,68.25
2023-02-19T12:06:42.757Z,68.38
2023-02-19T12:09:37.838Z,68.78
2023-02-19T12:12:16.973Z,68.49
2023-02-19T12:14:56.137Z,68.14
2023-02-19T12:17:41.895Z,67.88
2023-02-19T12:20:14.824Z,67.63
2023-02-19T12:23:09.675Z,67.65
2023-02-19T12:26:01.868Z,67.75
2023-02-19T12:28:28.961Z,67.53
2023-02-19T12:31:13.258Z,67.43
2023-02-19T12:34:26.878Z,67.48
2023-02-19T12:37:25.108Z,67.29
2023-02-19T12:40:36.196Z,67.12
2023-02-19T12:43:09.309Z,67.02
2023-02-19T12:45:52.519Z,67.14
2023-02-19T12:48:49.109Z,67.30
2023-02-19T12:51:25.284Z,67.49
2023-02-19T12:54:06.414Z,67.50
2023-02-19T12:56:39.249Z,67.50
2023-02-19T12:59:06.440Z,67.62
2023-02-19T13:01:41.823Z,67.62
2023-02-19T13:04:26.128Z,67.47
2023-02-19T13:07:14.275Z,67.56
2023-02-19T13:09:52.070Z,67.30
2023-02-19T13:12:30.769Z,67.14
2023-02-19T13:15:02.509Z,67.36
2023-02-19T13:17:41.709Z,67.25
2023-02-19T13:20:27.519Z,67.00
2023-02-19T13:23:45.647Z,66.93
2023-02-19T13:26:40.850Z,66.90
2023-02-19T13:29:29.959Z,66.37
2023-02-19T13:32:03.250Z,66.48
2023-02-19T13:34:52.454Z,66.44
2023-02-19T13:37:20.830Z,66.53
2023-02-19T13:39:50.873Z,66.63
2023-02-19T13:42:38.887Z,66.81
2023-02-19T13:45:06.830Z,66.55
2023-02-19T13:48:00.144Z,66.67
2023-02-19T13:50:29.091Z,66.69
2023-02-19T13:52:57.863Z,66.65
2023-02-19T13:55:44.206Z,66.54
2023-02-19T13:58:33.442Z,66.37
2023-02-19T14:01:02.936Z,66.35
2023-02-19T14:03:39.259Z,66.28
2023-02-19T14:06:10.012Z,66.45
2023-02-19T14:08:47.573Z,66.36
2023-02-19T14:11:16.229Z,66.30
2023-02-19T14:13:52.276Z,66.23
2023-02-19T14:16:28.426Z,65.88
2023-02-19T14:18:56.473Z,65.97
2023-02-19T14:21:27.963Z,66.06
2023-02-19T14:23:58.208Z,66.03
2023-02-19T14:26:26.840Z,65.82
2023-02-19T14:28:54.596Z,65.89
2023-02-19T14:31:29.548Z,65.81
2023-02-19T14:34:03.827Z,65.70
2023-02-19T14:36:45.637Z,65.74
2023-02-19T14:39:20.038Z,65.58
2023-02-19T14:41:51.440Z,65.57
2023-02-19T14:44:26.315Z,65.62
2023-02-19T14:47:05.296Z,65.65
2023-02-19T14:49:45.931Z,65.67
2023-02-19T14:52:25.284Z,65.58
2023-02-19T14:55:06.329Z,65.61
2023-02-19T14:57:39.159Z,65.55
2023-02-19T15:00:22.466Z,65.58
2023-02-19T15:02:59.780Z,65.40
2023-02-19T15:05:32.850Z,65.50
2023-02-19T15:08:03.363Z,65.25
2023-02-19T15:10:33.466Z,65.53
2023-02-19T15:13:08.283Z,65.53
2023-02-19T15:15:43.458Z,65.32
2023-02-19T15:18:19.701Z,65.48
2023-02-19T15:20:47.635Z,65.33
2023-02-19T15:23:25.422Z,65.38
2023-02-19T15:25:53.374Z,65.42
2023-02-19T15:28:26.354Z,65.26
2023-02-19T15:30:59.654Z,65.25
2023-02-19T15:33:28.186Z,64.93
2023-02-19T15:36:01.547Z,64.90
2023-02-19T15:38:29.859Z,64.89
2023-02-19T15:40:58.710Z,64.78
2023-02-19T15:43:35.094Z,64.57
2023-02-19T15:46:10.132Z,64.80
2023-02-19T15:48:46.110Z,64.58
2023-02-19T15:51:22.271Z,64.56
2023-02-19T15:53:57.291Z,64.46
2023-02-19T15:56:30.913Z,64.46
2023-02-19T15:59:03.974Z,64.52
2023-02-19T16:01:34.512Z,64.56
2023-02-19T16:04:02.525Z,64.38
2023-02-19T16:06:30.687Z,64.32
2023-02-19T16:09:03.997Z,64.46
2023-02-19T16:11:38.015Z,64.35
2023-02-19T16:14:32.965Z,64.21
2023-02-19T16:17:23.265Z,64.33
2023-02-19T16:19:56.853Z,64.30
2023-02-19T16:22:29.265Z,64.25
2023-02-19T16:24:58.934Z,64.32
2023-02-19T16:27:32.012Z,64.20
2023-02-19T16:30:03.736Z,64.20
2023-02-19T16:32:31.072Z,64.28
2023-02-19T16:34:58.650Z,64.14
2023-02-19T16:37:38.196Z,63.93
2023-02-19T16:40:08.306Z,63.97
2023-02-19T16:42:36.816Z,63.82
2023-02-19T16:45:04.505Z,63.98
2023-02-19T16:47:34.343Z,63.90
2023-02-19T16:50:03.139Z,63.86
2023-02-19T16:52:31.279Z,63.97
2023-02-19T16:54:58.638Z,63.79
2023-02-19T16:57:25.763Z,63.87
2023-02-19T16:59:52.988Z,63.80
2023-02-19T17:02:22.698Z,63.95
2023-02-19T17:04:51.927Z,63.82
2023-02-19T17:07:19.279Z,63.64
2023-02-19T17:09:46.457Z,63.68
2023-02-19T17:12:16.958Z,63.62
2023-02-19T17:14:44.236Z,63.79
2023-02-19T17:17:11.625Z,63.55
2023-02-19T17:19:39.768Z,63.38
2023-02-19T17:22:07.389Z,63.51
2023-02-19T17:24:34.567Z,63.48
2023-02-19T17:27:01.681Z,63.66
2023-02-19T17:29:30.651Z,63.46
2023-02-19T17:31:57.870Z,63.60
2023-02-19T17:34:25.066Z,63.55
2023-02-19T17:36:52.202Z,63.52
2023-02-19T17:39:19.569Z,63.45
2023-02-19T17:41:46.758Z,63.45
2023-02-19T17:44:13.963Z,63.38
2023-02-19T17:46:42.084Z,63.33
2023-02-19T17:49:12.669Z,63.26
2023-02-19T17:51:39.865Z,63.30
2023-02-19T17:54:08.355Z,63.36
2023-02-19T17:56:36.067Z,63.29
2023-02-19T17:59:03.262Z,63.40
2023-02-19T18:01:30.379Z,63.37
2023-02-19T18:03:57.715Z,63.32
2023-02-19T18:06:24.820Z,63.23
2023-02-19T18:08:53.327Z,63.38
2023-02-19T18:11:22.334Z,63.40
2023-02-19T18:13:52.898Z,63.31
2023-02-19T18:16:20.791Z,63.24
2023-02-19T18:18:47.948Z,63.18
2023-02-19T18:21:15.508Z,63.17
2023-02-19T18:23:42.754Z,63.19
2023-02-19T18:26:11.540Z,63.26
2023-02-19T18:28:38.935Z,63.18
2023-02-19T18:31:06.864Z,63.13
2023-02-19T18:33:35.251Z,63.08
2023-02-19T18:36:03.862Z,63.03
2023-02-19T18:38:30.967Z,62.97
2023-02-19T18:40:58.950Z,62.96
2023-02-19T18:43:26.525Z,63.02
2023-02-19T18:45:53.660Z,62.97
2023-02-19T18:48:20.816Z,62.88
2023-02-19T18:50:48.029Z,62.79
2023-02-19T18:53:15.198Z,62.94
2023-02-19T18:55:42.374Z,62.94
2023-02-19T18:58:09.524Z,62.85
2023-02-19T19:00:36.730Z,62.65
2023-02-19T19:03:04.053Z,62.80
2023-02-19T19:05:31.566Z,62.65
2023-02-19T19:08:02.009Z,62.71
2023-02-19T19:10:29.272Z,62.76
2023-02-19T19:12:56.578Z,62.65
2023-02-19T19:15:24.187Z,62.63
2023-02-19T19:17:51.647Z,62.71
2023-02-19T19:20:23.526Z,62.77
2023-02-19T19:22:52.758Z,62.72
2023-02-19T19:25:21.451Z,62.72
2023-02-19T19:27:50.819Z,62.74
2023-02-19T19:30:20.205Z,62.61
2023-02-19T19:32:52.298Z,62.62
2023-02-19T19:35:21.374Z,62.68
2023-02-19T19:37:49.608Z,62.63
2023-02-19T19:40:17.740Z,62.60
2023-02-19T19:42:44.910Z,62.75
2023-02-19T19:45:12.562Z,62.78
2023-02-19T19:47:39.756Z,62.70
2023-02-19T19:50:07.112Z,62.58
2023-02-19T19:52:34.543Z,62.76
2023-02-19T19:55:01.867Z,62.62
2023-02-19T19:57:28.939Z,62.67
2023-02-19T19:59:55.987Z,62.66
2023-02-19T20:02:23.964Z,62.69
2023-02-19T20:04:51.501Z,62.71
2023-02-19T20:07:18.798Z,62.77
2023-02-19T20:09:50.146Z,62.62
2023-02-19T20:12:18.032Z,62.60
2023-02-19T20:14:46.362Z,62.65
2023-02-19T20:17:14.395Z,62.64
2023-02-19T20:19:41.534Z,62.65
2023-02-19T20:22:08.726Z,62.64
2023-02-19T20:24:35.965Z,62.77
2023-02-19T20:27:03.345Z,62.76
2023-02-19T20:29:34.659Z,62.74
2023-02-19T20:32:03.895Z,62.79
2023-02-19T20:34:31.826Z,62.79
2023-02-19T20:36:59.378Z,62.74
2023-02-19T20:39:29.371Z,62.84
2023-02-19T20:41:57.778Z,62.81
2023-02-19T20:44:26.201Z,62.83
2023-02-19T20:46:54.027Z,62.72
2023-02-19T20:49:23.453Z,62.83
2023-02-19T20:51:54.104Z,62.97
2023-02-19T20:54:23.866Z,62.96
2023-02-19T20:56:53.309Z,62.93
2023-02-19T20:59:23.213Z,62.95
2023-02-19T21:01:50.523Z,62.99
2023-02-19T21:04:19.156Z,62.97
2023-02-19T21:06:46.351Z,62.94
2023-02-19T21:09:13.836Z,63.02
2023-02-19T21:11:40.986Z,62.94
2023-02-19T21:14:09.578Z,63.04
2023-02-19T21:16:36.908Z,63.00
2023-02-19T21:19:04.561Z,63.00
2023-02-19T21:21:32.068Z,63.01
2023-02-19T21:24:00.423Z,62.99
2023-02-19T21:26:38.128Z,63.08
2023-02-19T21:29:07.144Z,63.07
2023-02-19T21:31:42.901Z,63.03
2023-02-19T21:34:12.101Z,63.05
2023-02-19T21:36:39.936Z,63.05
2023-02-19T21:39:08.912Z,62.99
2023-02-19T21:41:36.130Z,63.02
2023-02-19T21:44:04.196Z,63.14
2023-02-19T21:46:33.070Z,62.98
2023-02-19T21:49:00.998Z,63.04
2023-02-19T21:51:34.340Z,63.10
2023-02-19T21:54:02.522Z,63.12
2023-02-19T21:56:33.962Z,62.99
2023-02-19T21:59:03.108Z,63.05
2023-02-19T22:01:33.348Z,63.06
2023-02-19T22:04:00.940Z,62.99
2023-02-19T22:06:30.653Z,63.03
2023-02-19T22:08:58.772Z,62.99
2023-02-19T22:11:26.126Z,63.02
2023-02-19T22:13:53.351Z,62.96
2023-02-19T22:16:20.854Z,62.86
2023-02-19T22:18:53.104Z,62.88
2023-02-19T22:21:21.746Z,62.78
2023-02-19T22:23:51.221Z,62.88
2023-02-19T22:26:20.192Z,62.87
2023-02-19T22:28:47.980Z,62.84
2023-02-19T22:31:16.953Z,62.84
2023-02-19T22:33:44.957Z,62.89
2023-02-19T22:36:20.263Z,62.92
2023-02-19T22:38:48.308Z,62.95
2023-02-19T22:41:17.234Z,62.99
2023-02-19T22:43:44.948Z,62.92
2023-02-19T22:46:17.211Z,63.00
2023-02-19T22:48:44.336Z,63.04
2023-02-19T22:51:19.597Z,63.03
2023-02-19T22:53:51.265Z,63.00
2023-02-19T22:56:20.379Z,63.01
2023-02-19T22:58:47.558Z,63.10
2023-02-19T23:01:15.129Z,63.16
2023-02-19T23:03:57.362Z,63.12
2023-02-19T23:06:31.008Z,63.15
2023-02-19T23:09:02.058Z,63.18
2023-02-19T23:11:32.449Z,63.19
2023-02-19T23:13:59.996Z,63.10
2023-02-19T23:16:27.382Z,63.13
2023-02-19T23:18:54.717Z,63.10
2023-02-19T23:21:22.996Z,63.18
2023-02-19T23:23:50.480Z,63.15
2023-02-19T23:26:18.292Z,63.23
2023-02-19T23:28:45.879Z,63.28
2023-02-19T23:31:13.939Z,63.13
2023-02-19T23:33:41.670Z,63.26
2023-02-19T23:36:10.066Z,63.12
2023-02-19T23:38:37.631Z,63.19
2023-02-19T23:41:09.750Z,63.21
2023-02-19T23:43:37.439Z,63.30
2023-02-19T23:46:04.932Z,63.23
2023-02-19T23:48:32.452Z,63.19
2023-02-19T23:50:59.652Z,63.14
2023-02-19T23:53:26.922Z,63.18
2023-02-19T23:55:53.976Z,63.10
2023-02-19T23:58:21.082Z,63.18
